Time;durP1;ratioP1;P1;durP2;ratioP2;P2;SDS_P1;SDS_P2;PMS_P1;PMS_P2;Temp;Humidity;BMP_temperature;BMP_pressure;BME280_temperature;BME280_humidity;BME280_pressure;Samples;Min_cycle;Max_cycle;Signal;HPM_P1;HPM_P2
2023/05/20 00:00:48;;;;;;;25.07;14.30;;;;;;;;;;740082;189;814054;-61
2023/05/20 00:03:13;;;;;;;40.90;26.63;;;;;;;;;;735041;189;916889;-66
2023/05/20 00:05:39;;;;;;;36.15;19.70;;;;;;;;;;735671;189;918305;-61
2023/05/20 00:08:08;;;;;;;39.40;24.10;;;;;;;;;;740670;189;918961;-61
2023/05/20 00:10:31;;;;;;;42.70;25.40;;;;;;;;;;736598;189;919519;-67
2023/05/20 00:12:57;;;;;;;40.10;22.20;;;;;;;;;;735765;189;919306;-67
2023/05/20 00:15:22;;;;;;;27.47;17.13;;;;;;;;;;741183;189;900941;-68
2023/05/20 00:17:48;;;;;;;26.27;16.03;;;;;;;;;;737552;189;919360;-67
2023/05/20 00:20:14;;;;;;;46.80;27.90;;;;;;;;;;736930;189;916682;-67
2023/05/20 00:22:40;;;;;;;25.80;17.40;;;;;;;;;;742162;189;820347;-67
2023/05/20 00:25:06;;;;;;;33.50;21.63;;;;;;;;;;737417;188;919494;-61
2023/05/20 00:27:32;;;;;;;35.87;20.10;;;;;;;;;;736609;188;915727;-62
2023/05/20 00:29:58;;;;;;;40.22;23.92;;;;;;;;;;739445;189;919478;-67
2023/05/20 00:32:24;;;;;;;56.43;25.93;;;;;;;;;;740750;189;816872;-68
2023/05/20 00:34:57;;;;;;;41.70;25.33;;;;;;;;;;736339;189;918278;-67
2023/05/20 00:37:23;;;;;;;45.23;25.17;;;;;;;;;;736813;189;918430;-67
2023/05/20 00:39:49;;;;;;;48.57;24.70;;;;;;;;;;740508;189;916450;-67
2023/05/20 00:42:20;;;;;;;33.70;20.20;;;;;;;;;;737766;189;918868;-61
2023/05/20 00:44:46;;;;;;;33.70;20.43;;;;;;;;;;738148;189;820411;-68
2023/05/20 00:47:12;;;;;;;39.30;24.87;;;;;;;;;;735307;189;938286;-61
2023/05/20 00:49:38;;;;;;;46.10;25.87;;;;;;;;;;740939;189;917446;-67
2023/05/20 00:52:04;;;;;;;36.03;18.93;;;;;;;;;;735906;189;919742;-62
2023/05/20 00:54:30;;;;;;;32.63;14.63;;;;;;;;;;737949;189;914855;-64
2023/05/20 00:56:56;;;;;;;37.50;21.80;;;;;;;;;;738951;189;976175;-61
2023/05/20 00:59:22;;;;;;;40.50;21.57;;;;;;;;;;735928;189;920241;-68
2023/05/20 01:01:47;;;;;;;39.93;22.20;;;;;;;;;;736428;189;920588;-61
2023/05/20 01:04:13;;;;;;;40.83;22.00;;;;;;;;;;740185;189;918353;-61
2023/05/20 01:06:39;;;;;;;29.00;18.90;;;;;;;;;;736844;189;911296;-67
2023/05/20 01:09:05;;;;;;;41.37;24.83;;;;;;;;;;737670;189;892304;-61
2023/05/20 01:11:31;;;;;;;42.13;23.87;;;;;;;;;;735206;189;919040;-61
2023/05/20 01:13:57;;;;;;;41.70;23.57;;;;;;;;;;741646;189;816702;-61
2023/05/20 01:16:23;;;;;;;32.05;18.17;;;;;;;;;;735320;189;920748;-61
2023/05/20 01:18:48;;;;;;;33.70;19.27;;;;;;;;;;735766;189;916593;-67
2023/05/20 01:21:14;;;;;;;38.30;21.33;;;;;;;;;;739861;189;919186;-67
2023/05/20 01:23:40;;;;;;;34.10;21.70;;;;;;;;;;734694;189;920143;-61
2023/05/20 01:26:07;;;;;;;33.20;21.60;;;;;;;;;;735331;189;914603;-61
2023/05/20 01:28:35;;;;;;;36.97;21.30;;;;;;;;;;741451;189;802805;-61
2023/05/20 01:31:00;;;;;;;34.25;21.35;;;;;;;;;;736335;189;912732;-61
2023/05/20 01:33:26;;;;;;;28.30;17.37;;;;;;;;;;735822;189;914643;-68
2023/05/20 01:35:52;;;;;;;39.07;23.60;;;;;;;;;;736308;188;920788;-61
2023/05/20 01:38:18;;;;;;;35.70;21.30;;;;;;;;;;743412;188;909956;-66
2023/05/20 01:40:44;;;;;;;35.50;25.05;;;;;;;;;;739637;189;919741;-67
2023/05/20 01:43:10;;;;;;;28.60;17.50;;;;;;;;;;736005;189;922926;-61
2023/05/20 01:45:37;;;;;;;36.33;22.37;;;;;;;;;;741090;189;919079;-61
2023/05/20 01:48:01;;;;;;;36.13;17.33;;;;;;;;;;736711;189;919233;-61
2023/05/20 01:50:27;;;;;;;42.30;23.63;;;;;;;;;;736610;189;921537;-61
2023/05/20 01:52:53;;;;;;;29.87;18.20;;;;;;;;;;741821;189;918624;-67
2023/05/20 01:55:19;;;;;;;38.33;23.57;;;;;;;;;;737603;189;921083;-61
2023/05/20 01:57:46;;;;;;;39.60;24.27;;;;;;;;;;737135;189;910811;-61
2023/05/20 02:00:11;;;;;;;36.37;21.30;;;;;;;;;;735305;189;918935;-67
2023/05/20 02:02:37;;;;;;;32.60;19.80;;;;;;;;;;735693;189;918521;-67
2023/05/20 02:05:03;;;;;;;37.63;20.03;;;;;;;;;;735542;189;919746;-67
2023/05/20 02:07:28;;;;;;;40.03;24.83;;;;;;;;;;734889;189;913653;-67
2023/05/20 02:09:54;;;;;;;46.53;24.10;;;;;;;;;;740736;189;917946;-67
2023/05/20 02:12:20;;;;;;;45.05;24.90;;;;;;;;;;736342;189;920538;-67
2023/05/20 02:14:46;;;;;;;43.23;25.63;;;;;;;;;;737222;189;918674;-61
2023/05/20 02:17:15;;;;;;;31.23;19.00;;;;;;;;;;740561;189;918652;-67
2023/05/20 02:19:38;;;;;;;44.93;27.37;;;;;;;;;;736845;189;918242;-60
2023/05/20 02:22:04;;;;;;;34.93;20.77;;;;;;;;;;737041;189;920112;-60
2023/05/20 02:24:29;;;;;;;46.50;25.87;;;;;;;;;;740646;189;862901;-60
2023/05/20 02:26:57;;;;;;;34.67;20.47;;;;;;;;;;735542;189;918956;-60
2023/05/20 02:29:21;;;;;;;59.93;23.40;;;;;;;;;;735646;189;918938;-67
2023/05/20 02:31:47;;;;;;;43.90;23.97;;;;;;;;;;734075;189;919161;-60
2023/05/20 02:34:13;;;;;;;38.63;24.23;;;;;;;;;;740754;189;872431;-60
2023/05/20 02:36:39;;;;;;;41.37;24.90;;;;;;;;;;736622;189;917041;-66
2023/05/20 02:39:05;;;;;;;35.35;20.52;;;;;;;;;;735821;189;917999;-66
2023/05/20 02:41:30;;;;;;;43.77;24.83;;;;;;;;;;741453;189;921747;-67
2023/05/20 02:43:56;;;;;;;40.20;23.30;;;;;;;;;;735865;189;919243;-66
2023/05/20 02:46:22;;;;;;;42.63;21.47;;;;;;;;;;737288;189;1021422;-60
2023/05/20 02:48:48;;;;;;;43.80;26.40;;;;;;;;;;743463;187;817086;-60
2023/05/20 02:51:14;;;;;;;34.03;18.47;;;;;;;;;;737208;189;820140;-66
2023/05/20 02:53:40;;;;;;;30.97;19.90;;;;;;;;;;738543;189;823467;-61
2023/05/20 02:56:06;;;;;;;46.67;24.37;;;;;;;;;;736955;189;918949;-67
2023/05/20 02:58:32;;;;;;;51.43;28.47;;;;;;;;;;740417;189;912379;-66
2023/05/20 03:00:58;;;;;;;36.22;21.95;;;;;;;;;;734976;190;915347;-67
2023/05/20 03:03:23;;;;;;;35.20;20.00;;;;;;;;;;737206;189;914387;-60
2023/05/20 03:05:49;;;;;;;33.50;18.90;;;;;;;;;;743361;189;819802;-66
2023/05/20 03:08:15;;;;;;;39.47;22.47;;;;;;;;;;736834;189;919668;-60
2023/05/20 03:10:41;;;;;;;27.47;15.67;;;;;;;;;;736591;189;918833;-60
2023/05/20 03:13:08;;;;;;;34.47;20.98;;;;;;;;;;740740;189;919212;-66
2023/05/20 03:15:33;;;;;;;39.43;21.83;;;;;;;;;;737697;189;918440;-59
2023/05/20 03:17:58;;;;;;;45.40;26.50;;;;;;;;;;737164;189;919635;-61
2023/05/20 03:20:25;;;;;;;47.50;26.23;;;;;;;;;;740478;189;919972;-60
2023/05/20 03:22:50;;;;;;;42.57;22.60;;;;;;;;;;739460;189;938815;-66
2023/05/20 03:25:16;;;;;;;27.93;16.70;;;;;;;;;;735376;189;915476;-60
2023/05/20 03:27:43;;;;;;;37.97;20.93;;;;;;;;;;735677;189;918878;-60
2023/05/20 03:30:08;;;;;;;44.63;23.90;;;;;;;;;;741000;189;919098;-60
2023/05/20 03:32:34;;;;;;;29.63;17.23;;;;;;;;;;736596;189;916282;-60
2023/05/20 03:35:00;;;;;;;42.47;23.27;;;;;;;;;;737345;189;793211;-60
2023/05/20 03:37:26;;;;;;;43.17;24.50;;;;;;;;;;739455;189;922041;-67
2023/05/20 03:39:51;;;;;;;37.20;21.70;;;;;;;;;;737860;189;868690;-60
2023/05/20 03:42:17;;;;;;;40.80;22.90;;;;;;;;;;735997;189;918343;-60
2023/05/20 03:44:43;;;;;;;42.10;26.10;;;;;;;;;;740549;189;917822;-66
2023/05/20 03:47:09;;;;;;;46.50;25.50;;;;;;;;;;734680;189;921569;-65
2023/05/20 03:49:35;;;;;;;46.20;25.07;;;;;;;;;;735068;189;908563;-66
2023/05/20 03:52:02;;;;;;;42.87;20.93;;;;;;;;;;735964;189;920501;-65
2023/05/20 03:54:28;;;;;;;38.77;22.77;;;;;;;;;;742887;189;917566;-66
2023/05/20 03:56:53;;;;;;;46.50;22.20;;;;;;;;;;735315;178;919227;-70
2023/05/20 03:59:18;;;;;;;42.77;24.07;;;;;;;;;;748980;184;917661;-70
2023/05/20 04:01:45;;;;;;;25.33;13.17;;;;;;;;;;743629;186;919682;-70
2023/05/20 04:04:10;;;;;;;36.80;20.43;;;;;;;;;;724346;190;918824;-71
2023/05/20 04:06:36;;;;;;;38.58;22.83;;;;;;;;;;727410;191;924951;-71
2023/05/20 04:09:02;;;;;;;33.50;16.77;;;;;;;;;;734798;190;816501;-71
2023/05/20 04:11:28;;;;;;;47.23;24.43;;;;;;;;;;740502;185;1641536;-71
2023/05/20 04:13:53;;;;;;;47.73;25.63;;;;;;;;;;727880;190;816421;-71
2023/05/20 04:16:19;;;;;;;35.03;16.37;;;;;;;;;;727555;191;919037;-71
2023/05/20 04:18:47;;;;;;;42.65;20.37;;;;;;;;;;726862;190;717954;-71
2023/05/20 04:21:11;;;;;;;39.97;20.40;;;;;;;;;;726706;190;918386;-71
2023/05/20 04:23:37;;;;;;;28.00;16.33;;;;;;;;;;723183;190;883739;-71
2023/05/20 04:26:03;;;;;;;46.40;25.85;;;;;;;;;;732060;191;920180;-71
2023/05/20 04:28:30;;;;;;;42.27;17.67;;;;;;;;;;731425;190;917472;-71
2023/05/20 04:30:59;;;;;;;32.27;19.67;;;;;;;;;;723839;191;917610;-72
2023/05/20 04:33:25;;;;;;;44.57;24.20;;;;;;;;;;723785;193;816623;-71
2023/05/20 04:35:51;;;;;;;37.37;20.37;;;;;;;;;;722567;191;836864;-72
2023/05/20 04:38:16;;;;;;;51.23;27.83;;;;;;;;;;719969;192;874205;-71
2023/05/20 04:40:42;;;;;;;39.05;22.17;;;;;;;;;;733896;190;915817;-71
2023/05/20 04:43:08;;;;;;;42.53;19.47;;;;;;;;;;738965;187;918629;-71
2023/05/20 04:45:34;;;;;;;61.53;28.50;;;;;;;;;;735220;187;920492;-71
2023/05/20 04:47:59;;;;;;;44.17;23.50;;;;;;;;;;723969;190;938487;-71
2023/05/20 04:50:25;;;;;;;49.30;30.40;;;;;;;;;;734625;190;886796;-71
2023/05/20 04:52:51;;;;;;;51.40;23.08;;;;;;;;;;723233;190;917737;-72
2023/05/20 04:55:18;;;;;;;53.43;25.10;;;;;;;;;;727117;190;912713;-72
2023/05/20 04:57:43;;;;;;;48.03;23.33;;;;;;;;;;742024;187;1023424;-71
2023/05/20 05:00:09;;;;;;;52.13;28.73;;;;;;;;;;739015;187;912164;-72
2023/05/20 05:02:35;;;;;;;53.20;28.27;;;;;;;;;;729397;190;920727;-71
2023/05/20 05:05:01;;;;;;;62.63;31.17;;;;;;;;;;738534;187;825782;-71
2023/05/20 05:07:26;;;;;;;44.57;25.07;;;;;;;;;;732824;187;919402;-72
2023/05/20 05:09:52;;;;;;;53.20;23.90;;;;;;;;;;742738;187;915691;-72
2023/05/20 05:12:18;;;;;;;51.20;27.10;;;;;;;;;;736662;187;920319;-71
2023/05/20 05:14:44;;;;;;;61.92;30.80;;;;;;;;;;753266;184;915813;-72
2023/05/20 05:17:10;;;;;;;38.20;21.13;;;;;;;;;;741340;184;838125;-72
2023/05/20 05:19:36;;;;;;;51.67;28.93;;;;;;;;;;726824;190;914769;-72
2023/05/20 05:22:02;;;;;;;38.57;21.67;;;;;;;;;;733017;190;802632;-71
2023/05/20 05:24:28;;;;;;;45.40;24.27;;;;;;;;;;732562;190;912976;-71
2023/05/20 05:26:53;;;;;;;47.60;25.20;;;;;;;;;;727308;190;912877;-72
2023/05/20 05:29:19;;;;;;;50.03;25.97;;;;;;;;;;732482;190;918885;-72
2023/05/20 05:31:45;;;;;;;43.37;23.17;;;;;;;;;;726090;191;828290;-72
2023/05/20 05:34:11;;;;;;;55.93;26.63;;;;;;;;;;743805;187;762208;-72
2023/05/20 05:36:37;;;;;;;51.70;27.33;;;;;;;;;;734869;187;910476;-72
2023/05/20 05:39:03;;;;;;;39.47;21.60;;;;;;;;;;731926;190;810865;-72
2023/05/20 05:41:28;;;;;;;59.83;27.50;;;;;;;;;;727271;191;810267;-72
2023/05/20 05:43:55;;;;;;;40.40;22.03;;;;;;;;;;717363;192;918872;-72
2023/05/20 05:46:20;;;;;;;53.27;27.90;;;;;;;;;;732381;190;916728;-72
2023/05/20 05:48:49;;;;;;;49.00;22.62;;;;;;;;;;726537;190;923203;-72
2023/05/20 05:51:12;;;;;;;62.33;29.77;;;;;;;;;;725737;190;815337;-73
2023/05/20 05:53:38;;;;;;;58.30;31.13;;;;;;;;;;736431;190;1020872;-71
2023/05/20 05:56:04;;;;;;;50.67;24.93;;;;;;;;;;732714;187;910001;-71
2023/05/20 05:58:30;;;;;;;57.67;30.30;;;;;;;;;;738099;187;920782;-72
2023/05/20 06:00:57;;;;;;;58.97;24.93;;;;;;;;;;732900;190;919100;-72
2023/05/20 06:03:22;;;;;;;48.53;23.67;;;;;;;;;;727579;189;916780;-71
2023/05/20 06:05:48;;;;;;;40.73;23.60;;;;;;;;;;736500;187;886746;-72
2023/05/20 06:08:14;;;;;;;57.47;26.70;;;;;;;;;;741765;187;915079;-71
2023/05/20 06:10:40;;;;;;;67.60;32.30;;;;;;;;;;741197;187;631953;-72
2023/05/20 06:13:05;;;;;;;54.67;29.93;;;;;;;;;;745144;187;633367;-71
2023/05/20 06:15:31;;;;;;;67.10;33.37;;;;;;;;;;742631;187;809763;-72
2023/05/20 06:17:57;;;;;;;54.53;27.80;;;;;;;;;;726674;191;628205;-72
2023/05/20 06:20:23;;;;;;;47.13;26.40;;;;;;;;;;729398;190;626142;-71
2023/05/20 06:22:49;;;;;;;43.40;26.20;;;;;;;;;;741308;186;636125;-71
2023/05/20 06:25:15;;;;;;;47.00;25.77;;;;;;;;;;744471;186;615756;-72
2023/05/20 06:27:41;;;;;;;38.10;17.27;;;;;;;;;;740606;185;924581;-72
2023/05/20 06:30:07;;;;;;;38.43;16.57;;;;;;;;;;732211;187;929381;-72
2023/05/20 06:32:34;;;;;;;52.97;24.45;;;;;;;;;;731953;191;918098;-72
2023/05/20 06:34:59;;;;;;;55.00;24.00;;;;;;;;;;741862;185;1020096;-72
2023/05/20 06:37:25;;;;;;;46.17;24.20;;;;;;;;;;744097;185;817639;-71
2023/05/20 06:39:52;;;;;;;27.50;15.10;;;;;;;;;;727247;191;910364;-72
2023/05/20 06:42:20;;;;;;;30.37;14.87;;;;;;;;;;716050;194;922532;-72
2023/05/20 06:44:46;;;;;;;64.50;25.10;;;;;;;;;;725790;190;917519;-72
2023/05/20 06:47:15;;;;;;;54.53;26.37;;;;;;;;;;725852;190;917827;-72
2023/05/20 06:49:43;;;;;;;55.03;25.27;;;;;;;;;;729906;190;910480;-72
2023/05/20 06:52:10;;;;;;;44.50;17.77;;;;;;;;;;735633;189;918165;-72
2023/05/20 06:54:38;;;;;;;45.97;22.43;;;;;;;;;;734318;189;917037;-71
2023/05/20 06:57:01;;;;;;;48.83;23.80;;;;;;;;;;723385;190;921652;-72
2023/05/20 06:59:27;;;;;;;44.40;17.60;;;;;;;;;;734349;190;917723;-72
2023/05/20 07:01:53;;;;;;;44.07;20.63;;;;;;;;;;720692;191;817432;-72
2023/05/20 07:04:19;;;;;;;40.43;22.33;;;;;;;;;;722994;191;918291;-72
2023/05/20 07:06:44;;;;;;;47.00;22.27;;;;;;;;;;722213;194;921194;-72
2023/05/20 07:09:11;;;;;;;48.73;22.07;;;;;;;;;;730984;190;921434;-72
2023/05/20 07:11:36;;;;;;;36.83;16.20;;;;;;;;;;726533;190;918595;-72
2023/05/20 07:14:02;;;;;;;37.73;19.17;;;;;;;;;;731335;191;920724;-72
2023/05/20 07:16:28;;;;;;;43.07;22.10;;;;;;;;;;726393;190;912516;-72
2023/05/20 07:18:54;;;;;;;43.22;22.15;;;;;;;;;;723833;190;1006837;-71
2023/05/20 07:21:20;;;;;;;40.10;16.63;;;;;;;;;;732537;190;1009812;-72
2023/05/20 07:23:45;;;;;;;46.90;24.47;;;;;;;;;;732906;190;823141;-72
2023/05/20 07:26:11;;;;;;;47.33;21.93;;;;;;;;;;730531;185;913632;-72
2023/05/20 07:28:37;;;;;;;62.42;28.85;;;;;;;;;;732428;187;1022788;-72
2023/05/20 07:31:03;;;;;;;54.70;25.30;;;;;;;;;;735043;190;789343;-71
2023/05/20 07:33:29;;;;;;;60.43;28.60;;;;;;;;;;730520;190;918887;-72
2023/05/20 07:35:55;;;;;;;52.57;25.17;;;;;;;;;;725762;188;919480;-72
2023/05/20 07:38:21;;;;;;;65.17;29.40;;;;;;;;;;732927;190;920855;-72
2023/05/20 07:40:47;;;;;;;39.33;20.97;;;;;;;;;;724577;190;916929;-72
2023/05/20 07:43:12;;;;;;;51.00;26.90;;;;;;;;;;723182;191;919051;-72
2023/05/20 07:45:38;;;;;;;39.77;19.93;;;;;;;;;;737889;187;913562;-72
2023/05/20 07:48:04;;;;;;;55.67;24.63;;;;;;;;;;737587;187;715096;-71
2023/05/20 07:50:30;;;;;;;47.30;21.30;;;;;;;;;;729911;190;1021497;-72
2023/05/20 07:52:56;;;;;;;34.55;18.55;;;;;;;;;;726553;190;920859;-72
2023/05/20 07:55:22;;;;;;;41.57;19.27;;;;;;;;;;744869;185;921293;-72
2023/05/20 07:57:48;;;;;;;29.50;17.83;;;;;;;;;;743011;187;856949;-72
2023/05/20 08:00:13;;;;;;;46.23;29.93;;;;;;;;;;736226;188;814480;-72
2023/05/20 08:02:39;;;;;;;35.30;18.20;;;;;;;;;;729488;190;922420;-71
2023/05/20 08:05:05;;;;;;;41.17;25.90;;;;;;;;;;731850;187;817460;-73
2023/05/20 08:07:31;;;;;;;46.60;25.07;;;;;;;;;;732729;187;813522;-71
2023/05/20 08:09:57;;;;;;;47.97;24.17;;;;;;;;;;748213;187;921216;-72
2023/05/20 08:12:23;;;;;;;32.93;16.63;;;;;;;;;;726189;190;921582;-72
2023/05/20 08:14:49;;;;;;;48.83;26.27;;;;;;;;;;723208;190;921154;-72
2023/05/20 08:17:15;;;;;;;45.17;23.70;;;;;;;;;;742098;186;839111;-72
2023/05/20 08:19:41;;;;;;;29.00;16.53;;;;;;;;;;734056;187;921657;-72
2023/05/20 08:22:07;;;;;;;39.53;22.20;;;;;;;;;;727165;191;918685;-73
2023/05/20 08:24:32;;;;;;;27.73;17.00;;;;;;;;;;731804;190;817152;-72
2023/05/20 08:26:58;;;;;;;34.30;19.00;;;;;;;;;;730723;190;917426;-72
2023/05/20 08:29:24;;;;;;;40.40;22.90;;;;;;;;;;727204;191;919132;-72
2023/05/20 08:31:51;;;;;;;30.77;19.50;;;;;;;;;;728678;190;919959;-72
2023/05/20 08:34:16;;;;;;;30.40;21.13;;;;;;;;;;730519;191;917276;-72
2023/05/20 08:36:43;;;;;;;42.60;24.07;;;;;;;;;;756169;183;918847;-68
2023/05/20 08:39:08;;;;;;;37.70;23.67;;;;;;;;;;754265;185;916698;-61
2023/05/20 08:41:33;;;;;;;42.23;23.57;;;;;;;;;;756618;185;919018;-66
2023/05/20 08:43:59;;;;;;;26.80;16.37;;;;;;;;;;752135;185;1021718;-61
2023/05/20 08:46:25;;;;;;;33.90;17.47;;;;;;;;;;751298;183;918831;-62
2023/05/20 08:48:51;;;;;;;31.60;18.87;;;;;;;;;;755831;184;917530;-61
2023/05/20 08:51:17;;;;;;;36.80;24.20;;;;;;;;;;757962;184;806857;-67
2023/05/20 08:53:42;;;;;;;31.70;19.00;;;;;;;;;;758055;184;917577;-61
2023/05/20 08:56:08;;;;;;;23.87;14.75;;;;;;;;;;755301;185;919367;-68
2023/05/20 08:58:34;;;;;;;34.60;21.60;;;;;;;;;;757934;185;918911;-68
2023/05/20 09:01:00;;;;;;;24.27;16.97;;;;;;;;;;752862;185;817523;-68
2023/05/20 09:03:26;;;;;;;47.58;27.95;;;;;;;;;;754313;183;919445;-62
2023/05/20 09:05:52;;;;;;;39.53;20.83;;;;;;;;;;757962;185;916529;-66
2023/05/20 09:08:18;;;;;;;27.30;17.37;;;;;;;;;;753361;183;919560;-61
2023/05/20 09:10:44;;;;;;;30.40;19.60;;;;;;;;;;753200;184;918906;-63
2023/05/20 09:13:10;;;;;;;28.77;18.00;;;;;;;;;;750396;185;919062;-62
2023/05/20 09:15:35;;;;;;;21.07;14.57;;;;;;;;;;749103;186;919423;-67
2023/05/20 09:18:01;;;;;;;24.73;16.10;;;;;;;;;;755207;184;920818;-69
2023/05/20 09:20:28;;;;;;;29.17;20.00;;;;;;;;;;753189;183;917827;-61
2023/05/20 09:22:54;;;;;;;24.10;15.20;;;;;;;;;;758688;184;918700;-61
2023/05/20 09:25:19;;;;;;;29.03;19.70;;;;;;;;;;751069;185;919032;-67
2023/05/20 09:27:46;;;;;;;23.83;16.10;;;;;;;;;;750889;185;915508;-67
2023/05/20 09:30:12;;;;;;;23.30;16.57;;;;;;;;;;759339;184;913358;-67
2023/05/20 09:32:37;;;;;;;28.07;19.40;;;;;;;;;;749092;185;920985;-61
2023/05/20 09:35:05;;;;;;;23.57;18.23;;;;;;;;;;750945;185;818040;-66
2023/05/20 09:37:30;;;;;;;26.90;19.13;;;;;;;;;;752843;185;918417;-61
2023/05/20 09:39:58;;;;;;;20.43;11.90;;;;;;;;;;750820;187;884663;-68
2023/05/20 09:42:25;;;;;;;28.30;18.37;;;;;;;;;;752899;184;916603;-67
2023/05/20 09:44:49;;;;;;;19.23;13.33;;;;;;;;;;753454;185;919046;-66
2023/05/20 09:47:15;;;;;;;22.17;16.20;;;;;;;;;;757773;185;817952;-61
2023/05/20 09:49:41;;;;;;;33.33;18.27;;;;;;;;;;750577;185;858851;-67
2023/05/20 09:52:06;;;;;;;27.40;18.00;;;;;;;;;;751809;183;919289;-62
2023/05/20 09:54:32;;;;;;;24.67;16.90;;;;;;;;;;754952;185;825597;-67
2023/05/20 09:56:58;;;;;;;15.07;13.43;;;;;;;;;;754328;183;919141;-61
2023/05/20 09:59:24;;;;;;;19.60;16.10;;;;;;;;;;755104;184;921608;-61
2023/05/20 10:01:50;;;;;;;26.40;19.25;;;;;;;;;;760369;184;918411;-62
2023/05/20 10:04:16;;;;;;;24.37;15.40;;;;;;;;;;753358;185;916759;-61
2023/05/20 10:06:45;;;;;;;24.47;16.10;;;;;;;;;;757772;184;916511;-61
2023/05/20 10:09:17;;;;;;;17.40;14.20;;;;;;;;;;756388;184;918724;-61
2023/05/20 10:11:43;;;;;;;18.17;16.30;;;;;;;;;;760087;184;919637;-61
2023/05/20 10:14:18;;;;;;;18.40;12.27;;;;;;;;;;752116;185;934135;-66
2023/05/20 10:16:47;;;;;;;28.47;19.07;;;;;;;;;;748248;185;819962;-66
2023/05/20 10:19:19;;;;;;;16.75;12.07;;;;;;;;;;751656;185;916725;-61
2023/05/20 10:21:45;;;;;;;18.47;15.30;;;;;;;;;;751211;184;916454;-65
2023/05/20 10:24:11;;;;;;;16.10;13.93;;;;;;;;;;757902;184;821973;-66
2023/05/20 10:26:37;;;;;;;20.53;15.73;;;;;;;;;;754010;184;838204;-61
2023/05/20 10:29:02;;;;;;;18.87;10.33;;;;;;;;;;753328;183;919903;-66
2023/05/20 10:31:33;;;;;;;14.03;8.70;;;;;;;;;;757040;184;919225;-66
2023/05/20 10:33:54;;;;;;;19.67;14.53;;;;;;;;;;752312;183;914074;-60
2023/05/20 10:36:21;;;;;;;16.77;13.60;;;;;;;;;;754782;185;917210;-60
2023/05/20 10:38:51;;;;;;;18.83;14.00;;;;;;;;;;759251;184;920340;-66
2023/05/20 10:41:16;;;;;;;19.40;15.77;;;;;;;;;;754131;185;919950;-60
2023/05/20 10:43:43;;;;;;;12.40;9.50;;;;;;;;;;753517;179;1793508;-80
2023/05/20 10:46:18;;;;;;;23.90;15.93;;;;;;;;;;751901;187;972404;-79
2023/05/20 10:48:44;;;;;;;21.10;14.63;;;;;;;;;;743134;186;1591452;-79
2023/05/20 10:54:03;;;;;;;16.87;12.20;;;;;;;;;;712225;176;1101937;-84
2023/05/20 10:56:28;;;;;;;18.20;14.20;;;;;;;;;;758531;183;631640;-79
2023/05/20 10:58:55;;;;;;;19.73;14.33;;;;;;;;;;761322;183;628524;-80
2023/05/20 11:01:23;;;;;;;14.73;11.83;;;;;;;;;;763766;182;667015;-80
2023/05/20 11:03:48;;;;;;;17.30;13.87;;;;;;;;;;760594;182;797428;-79
2023/05/20 11:06:14;;;;;;;18.87;12.87;;;;;;;;;;748190;186;623559;-80
2023/05/20 11:08:40;;;;;;;15.73;10.20;;;;;;;;;;745948;186;627560;-79
2023/05/20 11:11:06;;;;;;;19.40;14.40;;;;;;;;;;760653;183;631850;-79
2023/05/20 11:13:32;;;;;;;15.60;12.67;;;;;;;;;;753672;183;892045;-80
2023/05/20 11:15:58;;;;;;;17.23;9.80;;;;;;;;;;761612;183;712951;-79
2023/05/20 11:18:24;;;;;;;15.50;11.97;;;;;;;;;;765067;183;652734;-78
2023/05/20 11:20:50;;;;;;;16.33;14.27;;;;;;;;;;759660;183;913923;-79
2023/05/20 11:23:16;;;;;;;16.70;14.07;;;;;;;;;;761729;181;639148;-78
2023/05/20 11:25:41;;;;;;;20.10;12.90;;;;;;;;;;764598;183;914221;-80
2023/05/20 11:28:07;;;;;;;17.30;14.10;;;;;;;;;;763504;183;633542;-79
2023/05/20 11:30:33;;;;;;;15.50;12.20;;;;;;;;;;760673;183;633118;-80
2023/05/20 11:32:59;;;;;;;19.77;12.07;;;;;;;;;;760273;183;962141;-79
2023/05/20 11:35:26;;;;;;;19.17;13.03;;;;;;;;;;764307;182;797787;-79
2023/05/20 11:37:54;;;;;;;17.40;11.67;;;;;;;;;;758522;183;643023;-79
2023/05/20 11:40:20;;;;;;;17.10;12.47;;;;;;;;;;760940;182;652503;-79
2023/05/20 11:42:45;;;;;;;14.43;10.20;;;;;;;;;;765816;183;628540;-80
2023/05/20 11:45:11;;;;;;;18.00;13.95;;;;;;;;;;763423;183;632412;-79
2023/05/20 11:47:37;;;;;;;19.93;15.07;;;;;;;;;;761948;183;636234;-80
2023/05/20 11:50:03;;;;;;;18.87;14.50;;;;;;;;;;765549;183;665429;-81
2023/05/20 11:52:29;;;;;;;18.47;11.90;;;;;;;;;;760059;183;637474;-79
2023/05/20 11:54:55;;;;;;;15.23;11.43;;;;;;;;;;759203;182;651363;-79
2023/05/20 11:57:20;;;;;;;17.73;14.43;;;;;;;;;;760428;183;625311;-80
2023/05/20 11:59:46;;;;;;;18.40;14.27;;;;;;;;;;765389;183;672124;-80
2023/05/20 12:02:12;;;;;;;14.13;10.17;;;;;;;;;;743760;186;955260;-80
2023/05/20 12:04:38;;;;;;;18.83;13.97;;;;;;;;;;749018;184;797385;-81
2023/05/20 12:07:08;;;;;;;18.77;14.37;;;;;;;;;;765328;183;619328;-79
2023/05/20 12:09:30;;;;;;;15.97;13.20;;;;;;;;;;754877;183;1225516;-80
2023/05/20 12:11:56;;;;;;;19.95;12.23;;;;;;;;;;749282;183;1223459;-79
2023/05/20 12:14:22;;;;;;;13.63;9.80;;;;;;;;;;756697;182;1897763;-79
2023/05/20 12:16:48;;;;;;;23.70;14.83;;;;;;;;;;766090;182;644957;-80
2023/05/20 12:19:14;;;;;;;26.87;16.07;;;;;;;;;;749065;186;665006;-79
2023/05/20 12:21:40;;;;;;;17.83;12.60;;;;;;;;;;745330;183;634711;-79
2023/05/20 12:24:07;;;;;;;20.20;15.30;;;;;;;;;;762944;183;647688;-79
2023/05/20 12:26:32;;;;;;;17.90;13.07;;;;;;;;;;749389;186;632596;-78
2023/05/20 12:28:58;;;;;;;20.83;14.33;;;;;;;;;;747225;186;647011;-80
2023/05/20 12:31:23;;;;;;;16.70;12.77;;;;;;;;;;751489;186;638643;-78
2023/05/20 12:33:49;;;;;;;19.47;15.53;;;;;;;;;;747364;186;627668;-79
2023/05/20 12:36:15;;;;;;;21.90;15.30;;;;;;;;;;746176;186;661115;-81
2023/05/20 12:38:41;;;;;;;19.27;14.37;;;;;;;;;;749082;186;626372;-80
2023/05/20 12:41:07;;;;;;;15.63;13.60;;;;;;;;;;743361;186;618035;-80
2023/05/20 12:43:37;;;;;;;15.40;11.88;;;;;;;;;;753174;183;948332;-80
2023/05/20 12:46:03;;;;;;;23.30;15.13;;;;;;;;;;746568;183;1686206;-77
2023/05/20 12:48:28;;;;;;;12.47;10.60;;;;;;;;;;765606;183;638328;-79
2023/05/20 12:50:55;;;;;;;20.13;14.93;;;;;;;;;;752864;183;1216749;-77
2023/05/20 12:53:21;;;;;;;20.37;14.73;;;;;;;;;;757296;183;723353;-78
2023/05/20 12:55:47;;;;;;;18.77;14.73;;;;;;;;;;761418;183;627697;-78
2023/05/20 12:58:13;;;;;;;12.27;10.43;;;;;;;;;;759616;183;646125;-77
2023/05/20 13:00:38;;;;;;;20.70;13.90;;;;;;;;;;760645;183;634665;-80
2023/05/20 13:03:04;;;;;;;20.40;14.27;;;;;;;;;;762000;183;685597;-79
2023/05/20 13:05:30;;;;;;;20.03;12.60;;;;;;;;;;758916;182;805201;-80
2023/05/20 13:07:56;;;;;;;30.00;15.40;;;;;;;;;;759313;183;627392;-80
2023/05/20 13:10:22;;;;;;;20.80;12.60;;;;;;;;;;761682;183;677865;-78
2023/05/20 13:12:48;;;;;;;25.20;13.90;;;;;;;;;;753858;183;623643;-79
2023/05/20 13:15:14;;;;;;;19.33;14.10;;;;;;;;;;762862;183;634193;-79
2023/05/20 13:17:39;;;;;;;22.83;15.40;;;;;;;;;;761531;183;630257;-80
2023/05/20 13:20:06;;;;;;;32.33;17.00;;;;;;;;;;762455;183;647663;-79
2023/05/20 13:22:32;;;;;;;22.50;14.63;;;;;;;;;;758754;183;654884;-79
2023/05/20 13:24:58;;;;;;;17.17;14.63;;;;;;;;;;757915;183;662223;-80
2023/05/20 13:27:24;;;;;;;23.63;16.77;;;;;;;;;;765897;183;649259;-79
2023/05/20 13:29:49;;;;;;;20.37;14.50;;;;;;;;;;758748;183;657986;-79
2023/05/20 13:32:15;;;;;;;26.48;20.12;;;;;;;;;;762238;183;661389;-78
2023/05/20 13:34:41;;;;;;;19.27;12.27;;;;;;;;;;764922;182;815741;-80
2023/05/20 13:37:07;;;;;;;18.17;13.73;;;;;;;;;;747678;182;613429;-78
2023/05/20 13:39:33;;;;;;;19.73;14.57;;;;;;;;;;768436;182;649592;-80
2023/05/20 13:41:59;;;;;;;17.10;13.20;;;;;;;;;;762989;183;660961;-81
2023/05/20 13:44:25;;;;;;;21.07;17.80;;;;;;;;;;765560;183;623080;-79
2023/05/20 13:46:50;;;;;;;20.23;16.43;;;;;;;;;;761498;183;642685;-80
2023/05/20 13:49:16;;;;;;;20.53;16.00;;;;;;;;;;760148;183;653795;-80
2023/05/20 13:51:42;;;;;;;21.53;15.13;;;;;;;;;;767578;183;614513;-79
2023/05/20 13:54:08;;;;;;;27.93;18.40;;;;;;;;;;760206;182;648940;-78
2023/05/20 13:56:34;;;;;;;21.37;17.27;;;;;;;;;;753655;182;663079;-80
2023/05/20 13:59:00;;;;;;;27.73;21.03;;;;;;;;;;753907;186;623335;-78